sensor_id;sensor_type;location;lat;lon;timestamp;pressure;altitude;pressure_sealevel;temperature;humidity
59168;BME280;70412;55.048;73.268;2024-02-23T00:02:37;102422.19;;;-29.60;77.88
59168;BME280;70412;55.048;73.268;2024-02-23T00:05:39;102454.81;;;-29.42;78.26
59168;BME280;70412;55.048;73.268;2024-02-23T00:08:42;102456.03;;;-29.45;78.02
59168;BME280;70412;55.048;73.268;2024-02-23T00:11:44;102458.13;;;-29.48;78.18
59168;BME280;70412;55.048;73.268;2024-02-23T00:14:47;102458.44;;;-29.52;77.64
59168;BME280;70412;55.048;73.268;2024-02-23T00:17:50;102460.13;;;-29.58;77.16
59168;BME280;70412;55.048;73.268;2024-02-23T00:20:52;102456.25;;;-29.63;77.53
59168;BME280;70412;55.048;73.268;2024-02-23T00:23:55;102470.34;;;-29.55;78.20
59168;BME280;70412;55.048;73.268;2024-02-23T00:26:57;102468.47;;;-29.51;77.83
59168;BME280;70412;55.048;73.268;2024-02-23T00:30:00;102457.75;;;-29.51;77.35
59168;BME280;70412;55.048;73.268;2024-02-23T00:33:03;102447.91;;;-29.51;77.17
59168;BME280;70412;55.048;73.268;2024-02-23T00:36:06;102466.88;;;-29.50;76.79
59168;BME280;70412;55.048;73.268;2024-02-23T00:39:09;102469.97;;;-29.58;76.40
59168;BME280;70412;55.048;73.268;2024-02-23T00:42:11;102464.31;;;-29.64;76.07
59168;BME280;70412;55.048;73.268;2024-02-23T00:45:14;102417.59;;;-29.91;76.44
59168;BME280;70412;55.048;73.268;2024-02-23T00:48:19;102449.19;;;-29.67;75.80
59168;BME280;70412;55.048;73.268;2024-02-23T00:51:21;102458.16;;;-29.68;76.50
59168;BME280;70412;55.048;73.268;2024-02-23T00:54:24;102455.78;;;-29.74;76.37
59168;BME280;70412;55.048;73.268;2024-02-23T00:57:27;102439.44;;;-29.80;76.20
59168;BME280;70412;55.048;73.268;2024-02-23T01:00:31;102454.47;;;-29.64;76.61
59168;BME280;70412;55.048;73.268;2024-02-23T01:03:35;102459.94;;;-29.60;76.67
59168;BME280;70412;55.048;73.268;2024-02-23T01:06:38;102454.84;;;-29.61;77.18
59168;BME280;70412;55.048;73.268;2024-02-23T01:09:41;102447.16;;;-29.57;77.84
59168;BME280;70412;55.048;73.268;2024-02-23T01:12:44;102451.44;;;-29.49;77.17
59168;BME280;70412;55.048;73.268;2024-02-23T01:15:47;102449.69;;;-29.50;77.24
59168;BME280;70412;55.048;73.268;2024-02-23T01:18:49;102445.09;;;-29.54;77.14
59168;BME280;70412;55.048;73.268;2024-02-23T01:21:52;102445.47;;;-29.51;76.90
59168;BME280;70412;55.048;73.268;2024-02-23T01:25:01;102441.59;;;-29.49;77.14
59168;BME280;70412;55.048;73.268;2024-02-23T01:28:04;102451.81;;;-29.46;76.87
59168;BME280;70412;55.048;73.268;2024-02-23T01:31:11;102423.75;;;-29.68;76.28
59168;BME280;70412;55.048;73.268;2024-02-23T01:34:26;102403.91;;;-29.69;76.30
59168;BME280;70412;55.048;73.268;2024-02-23T01:37:31;102456.22;;;-29.44;76.66
59168;BME280;70412;55.048;73.268;2024-02-23T01:40:34;102463.41;;;-29.45;77.00
59168;BME280;70412;55.048;73.268;2024-02-23T01:43:37;102462.78;;;-29.37;77.08
59168;BME280;70412;55.048;73.268;2024-02-23T01:46:39;102445.22;;;-29.33;77.25
59168;BME280;70412;55.048;73.268;2024-02-23T01:49:42;102463.50;;;-29.24;77.16
59168;BME280;70412;55.048;73.268;2024-02-23T01:52:46;102464.94;;;-29.26;77.21
59168;BME280;70412;55.048;73.268;2024-02-23T01:55:49;102446.00;;;-29.47;76.71
59168;BME280;70412;55.048;73.268;2024-02-23T01:58:57;102470.44;;;-29.41;76.95
59168;BME280;70412;55.048;73.268;2024-02-23T02:02:00;102468.34;;;-29.38;76.95
59168;BME280;70412;55.048;73.268;2024-02-23T02:05:03;102469.81;;;-29.33;76.74
59168;BME280;70412;55.048;73.268;2024-02-23T02:08:07;102473.72;;;-29.28;77.00
59168;BME280;70412;55.048;73.268;2024-02-23T02:11:09;102475.47;;;-29.27;77.27
59168;BME280;70412;55.048;73.268;2024-02-23T02:14:12;102484.25;;;-29.22;77.27
59168;BME280;70412;55.048;73.268;2024-02-23T02:17:15;102477.97;;;-29.20;77.22
59168;BME280;70412;55.048;73.268;2024-02-23T02:20:18;102486.09;;;-29.06;77.12
59168;BME280;70412;55.048;73.268;2024-02-23T02:23:24;102443.13;;;-29.23;77.00
59168;BME280;70412;55.048;73.268;2024-02-23T02:26:39;102497.44;;;-28.94;76.73
59168;BME280;70412;55.048;73.268;2024-02-23T02:29:41;102510.78;;;-28.92;76.94
59168;BME280;70412;55.048;73.268;2024-02-23T02:32:44;102435.75;;;-29.23;76.30
59168;BME280;70412;55.048;73.268;2024-02-23T02:35:47;102493.63;;;-28.85;77.20
59168;BME280;70412;55.048;73.268;2024-02-23T02:38:50;102441.47;;;-29.10;77.74
59168;BME280;70412;55.048;73.268;2024-02-23T02:41:52;102499.28;;;-28.79;77.22
59168;BME280;70412;55.048;73.268;2024-02-23T02:44:55;102506.47;;;-28.81;77.21
59168;BME280;70412;55.048;73.268;2024-02-23T02:48:00;102489.94;;;-28.82;76.16
59168;BME280;70412;55.048;73.268;2024-02-23T02:51:04;102502.78;;;-28.77;76.05
59168;BME280;70412;55.048;73.268;2024-02-23T02:54:07;102460.84;;;-28.98;75.84
59168;BME280;70412;55.048;73.268;2024-02-23T02:57:09;102494.75;;;-28.62;75.44
59168;BME280;70412;55.048;73.268;2024-02-23T03:00:12;102503.78;;;-28.48;74.90
59168;BME280;70412;55.048;73.268;2024-02-23T03:03:15;102493.47;;;-28.31;75.17
59168;BME280;70412;55.048;73.268;2024-02-23T03:06:17;102466.19;;;-28.33;74.46
59168;BME280;70412;55.048;73.268;2024-02-23T03:09:35;102494.78;;;-27.78;74.98
59168;BME280;70412;55.048;73.268;2024-02-23T03:12:38;102500.63;;;-27.49;74.73
59168;BME280;70412;55.048;73.268;2024-02-23T03:15:41;102491.47;;;-27.36;74.51
59168;BME280;70412;55.048;73.268;2024-02-23T03:18:44;102458.25;;;-27.24;74.00
59168;BME280;70412;55.048;73.268;2024-02-23T03:21:59;102489.34;;;-26.67;74.36
59168;BME280;70412;55.048;73.268;2024-02-23T03:25:03;102501.00;;;-26.36;74.41
59168;BME280;70412;55.048;73.268;2024-02-23T03:28:14;102500.13;;;-25.99;74.19
59168;BME280;70412;55.048;73.268;2024-02-23T03:31:17;102494.53;;;-25.60;74.61
59168;BME280;70412;55.048;73.268;2024-02-23T03:34:20;102497.31;;;-25.18;74.25
59168;BME280;70412;55.048;73.268;2024-02-23T03:37:22;102496.94;;;-24.75;74.74
59168;BME280;70412;55.048;73.268;2024-02-23T03:40:25;102498.81;;;-24.41;74.54
59168;BME280;70412;55.048;73.268;2024-02-23T03:43:27;102475.97;;;-24.14;74.04
59168;BME280;70412;55.048;73.268;2024-02-23T03:46:29;102491.47;;;-23.84;73.93
59168;BME280;70412;55.048;73.268;2024-02-23T03:49:32;102468.25;;;-23.51;74.04
59168;BME280;70412;55.048;73.268;2024-02-23T03:52:37;102465.22;;;-23.16;73.89
59168;BME280;70412;55.048;73.268;2024-02-23T03:55:39;102494.31;;;-22.98;72.42
59168;BME280;70412;55.048;73.268;2024-02-23T03:58:42;102486.88;;;-22.89;72.13
59168;BME280;70412;55.048;73.268;2024-02-23T04:01:45;102479.69;;;-22.86;71.82
59168;BME280;70412;55.048;73.268;2024-02-23T04:04:51;102473.88;;;-22.69;71.88
59168;BME280;70412;55.048;73.268;2024-02-23T04:07:53;102473.16;;;-22.51;71.96
59168;BME280;70412;55.048;73.268;2024-02-23T04:10:56;102475.81;;;-22.49;70.69
59168;BME280;70412;55.048;73.268;2024-02-23T04:13:58;102477.84;;;-22.54;70.14
59168;BME280;70412;55.048;73.268;2024-02-23T04:17:03;102460.91;;;-22.49;69.97
59168;BME280;70412;55.048;73.268;2024-02-23T04:20:07;102467.91;;;-22.28;70.32
59168;BME280;70412;55.048;73.268;2024-02-23T04:23:11;102469.63;;;-22.18;70.63
59168;BME280;70412;55.048;73.268;2024-02-23T04:26:14;102465.06;;;-22.05;70.00
59168;BME280;70412;55.048;73.268;2024-02-23T04:29:16;102463.03;;;-22.09;69.09
59168;BME280;70412;55.048;73.268;2024-02-23T04:32:19;102463.16;;;-22.16;69.22
59168;BME280;70412;55.048;73.268;2024-02-23T04:35:21;102342.75;;;-22.80;68.71
59168;BME280;70412;55.048;73.268;2024-02-23T04:38:24;102464.31;;;-21.87;68.95
59168;BME280;70412;55.048;73.268;2024-02-23T04:41:27;102459.84;;;-21.55;69.55
59168;BME280;70412;55.048;73.268;2024-02-23T04:44:30;102468.19;;;-21.27;69.41
59168;BME280;70412;55.048;73.268;2024-02-23T04:47:32;102459.03;;;-21.09;68.57
59168;BME280;70412;55.048;73.268;2024-02-23T04:50:35;102456.66;;;-20.80;68.76
59168;BME280;70412;55.048;73.268;2024-02-23T04:53:37;102454.59;;;-20.57;67.94
59168;BME280;70412;55.048;73.268;2024-02-23T04:56:40;102458.56;;;-20.49;67.11
59168;BME280;70412;55.048;73.268;2024-02-23T04:59:43;102450.66;;;-20.15;67.55
59168;BME280;70412;55.048;73.268;2024-02-23T05:02:45;102460.16;;;-19.93;67.12
59168;BME280;70412;55.048;73.268;2024-02-23T05:05:48;102465.94;;;-19.83;65.98
59168;BME280;70412;55.048;73.268;2024-02-23T05:08:56;102465.47;;;-19.79;65.22
59168;BME280;70412;55.048;73.268;2024-02-23T05:11:59;102460.50;;;-19.59;65.53
59168;BME280;70412;55.048;73.268;2024-02-23T05:15:02;102432.81;;;-19.42;64.83
59168;BME280;70412;55.048;73.268;2024-02-23T05:18:05;102450.63;;;-18.88;64.52
59168;BME280;70412;55.048;73.268;2024-02-23T05:21:08;102456.34;;;-18.58;63.73
59168;BME280;70412;55.048;73.268;2024-02-23T05:24:11;102458.31;;;-18.34;63.29
59168;BME280;70412;55.048;73.268;2024-02-23T05:27:14;102454.63;;;-18.07;63.30
59168;BME280;70412;55.048;73.268;2024-02-23T05:30:16;102448.28;;;-17.82;63.26
59168;BME280;70412;55.048;73.268;2024-02-23T05:33:19;102445.53;;;-17.63;62.86
59168;BME280;70412;55.048;73.268;2024-02-23T05:36:23;102414.03;;;-17.71;62.30
59168;BME280;70412;55.048;73.268;2024-02-23T05:39:25;102447.66;;;-17.35;61.92
59168;BME280;70412;55.048;73.268;2024-02-23T05:42:28;102451.84;;;-17.24;61.65
59168;BME280;70412;55.048;73.268;2024-02-23T05:45:31;102438.78;;;-17.20;61.45
59168;BME280;70412;55.048;73.268;2024-02-23T05:48:33;102425.47;;;-17.19;61.38
59168;BME280;70412;55.048;73.268;2024-02-23T05:51:36;102439.09;;;-16.94;61.32
59168;BME280;70412;55.048;73.268;2024-02-23T05:54:38;102450.94;;;-16.69;61.27
59168;BME280;70412;55.048;73.268;2024-02-23T05:57:41;102444.59;;;-16.64;60.59
59168;BME280;70412;55.048;73.268;2024-02-23T06:00:44;102452.91;;;-16.65;60.34
59168;BME280;70412;55.048;73.268;2024-02-23T06:03:49;102438.28;;;-16.71;59.49
59168;BME280;70412;55.048;73.268;2024-02-23T06:06:51;102447.47;;;-16.60;60.03
59168;BME280;70412;55.048;73.268;2024-02-23T06:09:55;102449.19;;;-16.70;59.33
59168;BME280;70412;55.048;73.268;2024-02-23T06:12:58;102451.38;;;-16.63;59.47
59168;BME280;70412;55.048;73.268;2024-02-23T06:16:01;102449.53;;;-16.54;59.09
59168;BME280;70412;55.048;73.268;2024-02-23T06:19:03;102460.22;;;-16.57;59.09
59168;BME280;70412;55.048;73.268;2024-02-23T06:22:06;102472.03;;;-16.44;58.80
59168;BME280;70412;55.048;73.268;2024-02-23T06:25:10;102456.53;;;-16.38;58.72
59168;BME280;70412;55.048;73.268;2024-02-23T06:28:14;102456.19;;;-16.31;57.56
59168;BME280;70412;55.048;73.268;2024-02-23T06:31:17;102422.00;;;-16.53;57.60
59168;BME280;70412;55.048;73.268;2024-02-23T06:34:19;102458.41;;;-16.24;57.51
59168;BME280;70412;55.048;73.268;2024-02-23T06:37:22;102448.03;;;-16.17;57.68
59168;BME280;70412;55.048;73.268;2024-02-23T06:40:25;102446.16;;;-16.31;57.11
59168;BME280;70412;55.048;73.268;2024-02-23T06:43:28;102443.31;;;-16.36;57.19
59168;BME280;70412;55.048;73.268;2024-02-23T06:46:31;102435.34;;;-16.42;56.88
59168;BME280;70412;55.048;73.268;2024-02-23T06:49:33;102432.63;;;-16.22;57.17
59168;BME280;70412;55.048;73.268;2024-02-23T06:52:36;102439.16;;;-16.00;57.08
59168;BME280;70412;55.048;73.268;2024-02-23T06:55:39;102437.31;;;-16.03;56.51
59168;BME280;70412;55.048;73.268;2024-02-23T06:58:42;102435.91;;;-16.11;56.09
59168;BME280;70412;55.048;73.268;2024-02-23T07:01:48;102439.16;;;-16.12;56.31
59168;BME280;70412;55.048;73.268;2024-02-23T07:04:51;102429.13;;;-16.00;56.50
59168;BME280;70412;55.048;73.268;2024-02-23T07:07:56;102430.09;;;-15.98;56.11
59168;BME280;70412;55.048;73.268;2024-02-23T07:10:59;102428.66;;;-15.95;56.01
59168;BME280;70412;55.048;73.268;2024-02-23T07:14:04;102430.59;;;-15.79;56.30
59168;BME280;70412;55.048;73.268;2024-02-23T07:17:07;102427.75;;;-15.60;56.21
59168;BME280;70412;55.048;73.268;2024-02-23T07:20:10;102423.94;;;-15.42;55.45
59168;BME280;70412;55.048;73.268;2024-02-23T07:23:13;102436.31;;;-15.45;55.14
59168;BME280;70412;55.048;73.268;2024-02-23T07:26:15;102423.94;;;-15.42;55.42
59168;BME280;70412;55.048;73.268;2024-02-23T07:29:17;102424.72;;;-15.18;55.36
59168;BME280;70412;55.048;73.268;2024-02-23T07:32:21;102418.91;;;-15.17;55.13
59168;BME280;70412;55.048;73.268;2024-02-23T07:35:23;102423.81;;;-15.07;55.56
59168;BME280;70412;55.048;73.268;2024-02-23T07:38:26;102424.94;;;-14.90;54.93
59168;BME280;70412;55.048;73.268;2024-02-23T07:41:29;102423.78;;;-14.82;55.05
59168;BME280;70412;55.048;73.268;2024-02-23T07:44:31;102424.06;;;-14.77;55.33
59168;BME280;70412;55.048;73.268;2024-02-23T07:47:34;102421.47;;;-14.79;54.69
59168;BME280;70412;55.048;73.268;2024-02-23T07:50:37;102422.75;;;-14.72;54.91
59168;BME280;70412;55.048;73.268;2024-02-23T07:53:40;102414.63;;;-14.68;54.50
59168;BME280;70412;55.048;73.268;2024-02-23T07:56:43;102418.50;;;-14.47;54.45
59168;BME280;70412;55.048;73.268;2024-02-23T07:59:48;102411.50;;;-14.64;54.09
59168;BME280;70412;55.048;73.268;2024-02-23T08:02:50;102419.66;;;-14.68;54.49
59168;BME280;70412;55.048;73.268;2024-02-23T08:05:53;102416.94;;;-14.71;53.73
59168;BME280;70412;55.048;73.268;2024-02-23T08:08:56;102412.88;;;-14.69;53.83
59168;BME280;70412;55.048;73.268;2024-02-23T08:11:58;102414.13;;;-14.62;54.00
59168;BME280;70412;55.048;73.268;2024-02-23T08:15:01;102407.28;;;-14.52;53.98
59168;BME280;70412;55.048;73.268;2024-02-23T08:18:03;102404.16;;;-14.48;54.10
59168;BME280;70412;55.048;73.268;2024-02-23T08:21:06;102408.81;;;-14.54;53.45
59168;BME280;70412;55.048;73.268;2024-02-23T08:24:09;102403.97;;;-14.51;53.98
59168;BME280;70412;55.048;73.268;2024-02-23T08:27:12;102402.16;;;-14.40;54.21
59168;BME280;70412;55.048;73.268;2024-02-23T08:30:15;102398.88;;;-14.26;53.65
59168;BME280;70412;55.048;73.268;2024-02-23T08:33:18;102399.34;;;-14.18;53.67
59168;BME280;70412;55.048;73.268;2024-02-23T08:36:20;102401.94;;;-14.03;53.41
59168;BME280;70412;55.048;73.268;2024-02-23T08:39:23;102391.75;;;-14.05;53.32
59168;BME280;70412;55.048;73.268;2024-02-23T08:42:26;102389.22;;;-14.05;53.35
59168;BME280;70412;55.048;73.268;2024-02-23T08:45:28;102393.09;;;-13.97;53.32
59168;BME280;70412;55.048;73.268;2024-02-23T08:48:31;102381.16;;;-13.99;53.36
59168;BME280;70412;55.048;73.268;2024-02-23T08:51:33;102354.75;;;-14.19;52.94
59168;BME280;70412;55.048;73.268;2024-02-23T08:54:36;102372.53;;;-14.03;53.33
59168;BME280;70412;55.048;73.268;2024-02-23T08:57:39;102330.31;;;-14.20;53.20
59168;BME280;70412;55.048;73.268;2024-02-23T09:00:42;102386.47;;;-13.95;53.17
59168;BME280;70412;55.048;73.268;2024-02-23T09:03:44;102391.50;;;-13.82;53.59
59168;BME280;70412;55.048;73.268;2024-02-23T09:06:47;102397.56;;;-13.93;52.88
59168;BME280;70412;55.048;73.268;2024-02-23T09:09:52;102394.03;;;-13.95;53.12
59168;BME280;70412;55.048;73.268;2024-02-23T09:12:56;102402.28;;;-13.84;53.01
59168;BME280;70412;55.048;73.268;2024-02-23T09:15:58;102392.19;;;-13.71;53.31
59168;BME280;70412;55.048;73.268;2024-02-23T09:19:01;102387.91;;;-13.72;53.01
59168;BME280;70412;55.048;73.268;2024-02-23T09:22:04;102393.06;;;-13.84;52.26
59168;BME280;70412;55.048;73.268;2024-02-23T09:25:07;102408.19;;;-13.70;52.59
59168;BME280;70412;55.048;73.268;2024-02-23T09:28:13;102399.50;;;-13.61;52.35
59168;BME280;70412;55.048;73.268;2024-02-23T09:31:15;102388.69;;;-13.45;52.56
59168;BME280;70412;55.048;73.268;2024-02-23T09:34:18;102393.31;;;-13.66;51.54
59168;BME280;70412;55.048;73.268;2024-02-23T09:37:20;102402.13;;;-14.14;51.47
59168;BME280;70412;55.048;73.268;2024-02-23T09:40:23;102396.72;;;-14.46;51.79
59168;BME280;70412;55.048;73.268;2024-02-23T09:43:28;102397.47;;;-14.47;52.79
59168;BME280;70412;55.048;73.268;2024-02-23T09:46:33;102397.31;;;-14.37;52.33
59168;BME280;70412;55.048;73.268;2024-02-23T09:49:41;102392.16;;;-14.52;52.30
59168;BME280;70412;55.048;73.268;2024-02-23T09:52:43;102399.13;;;-14.74;53.00
59168;BME280;70412;55.048;73.268;2024-02-23T09:55:47;102395.25;;;-14.56;53.42
59168;BME280;70412;55.048;73.268;2024-02-23T09:58:50;102398.88;;;-14.39;53.22
59168;BME280;70412;55.048;73.268;2024-02-23T10:01:54;102398.75;;;-14.54;53.50
59168;BME280;70412;55.048;73.268;2024-02-23T10:04:57;102364.94;;;-14.95;53.36
59168;BME280;70412;55.048;73.268;2024-02-23T10:08:02;102410.13;;;-14.85;53.28
59168;BME280;70412;55.048;73.268;2024-02-23T10:11:05;102398.84;;;-15.04;53.83
59168;BME280;70412;55.048;73.268;2024-02-23T10:14:08;102411.38;;;-15.17;53.73
59168;BME280;70412;55.048;73.268;2024-02-23T10:17:11;102415.22;;;-15.22;54.08
59168;BME280;70412;55.048;73.268;2024-02-23T10:20:13;102412.72;;;-15.22;54.29
59168;BME280;70412;55.048;73.268;2024-02-23T10:23:16;102408.19;;;-15.39;54.33
59168;BME280;70412;55.048;73.268;2024-02-23T10:26:18;102382.06;;;-15.78;54.71
59168;BME280;70412;55.048;73.268;2024-02-23T10:29:26;102424.00;;;-15.53;55.03
59168;BME280;70412;55.048;73.268;2024-02-23T10:32:29;102412.78;;;-15.58;54.66
59168;BME280;70412;55.048;73.268;2024-02-23T10:35:34;102411.84;;;-15.96;54.95
59168;BME280;70412;55.048;73.268;2024-02-23T10:38:43;102416.44;;;-15.90;55.23
59168;BME280;70412;55.048;73.268;2024-02-23T10:41:56;102428.09;;;-15.79;54.90
59168;BME280;70412;55.048;73.268;2024-02-23T10:45:01;102420.50;;;-15.92;54.25
59168;BME280;70412;55.048;73.268;2024-02-23T10:48:09;102425.63;;;-16.02;54.55
59168;BME280;70412;55.048;73.268;2024-02-23T10:51:15;102425.41;;;-16.29;54.38
59168;BME280;70412;55.048;73.268;2024-02-23T10:54:19;102419.72;;;-16.50;54.65
59168;BME280;70412;55.048;73.268;2024-02-23T10:57:23;102427.47;;;-16.58;55.34
59168;BME280;70412;55.048;73.268;2024-02-23T11:00:26;102423.84;;;-16.50;55.39
59168;BME280;70412;55.048;73.268;2024-02-23T11:03:32;102420.16;;;-16.55;54.68
59168;BME280;70412;55.048;73.268;2024-02-23T11:06:35;102420.81;;;-16.69;54.89
59168;BME280;70412;55.048;73.268;2024-02-23T11:09:38;102422.13;;;-16.74;55.25
59168;BME280;70412;55.048;73.268;2024-02-23T11:12:40;102386.25;;;-17.07;55.32
59168;BME280;70412;55.048;73.268;2024-02-23T11:15:44;102420.16;;;-16.78;55.70
59168;BME280;70412;55.048;73.268;2024-02-23T11:18:46;102418.75;;;-16.75;55.42
59168;BME280;70412;55.048;73.268;2024-02-23T11:21:52;102415.75;;;-16.81;55.21
59168;BME280;70412;55.048;73.268;2024-02-23T11:25:06;102424.91;;;-16.82;55.28
59168;BME280;70412;55.048;73.268;2024-02-23T11:28:21;102423.78;;;-16.97;55.53
59168;BME280;70412;55.048;73.268;2024-02-23T11:31:29;102398.06;;;-17.28;55.09
59168;BME280;70412;55.048;73.268;2024-02-23T11:34:34;102417.50;;;-17.25;55.15
59168;BME280;70412;55.048;73.268;2024-02-23T11:41:04;102426.53;;;-17.49;55.44
59168;BME280;70412;55.048;73.268;2024-02-23T11:44:07;102418.28;;;-17.70;55.91
59168;BME280;70412;55.048;73.268;2024-02-23T11:47:09;102423.09;;;-17.83;56.18
59168;BME280;70412;55.048;73.268;2024-02-23T11:50:13;102386.13;;;-18.08;56.20
59168;BME280;70412;55.048;73.268;2024-02-23T11:53:22;102427.53;;;-17.91;56.49
59168;BME280;70412;55.048;73.268;2024-02-23T11:56:30;102432.34;;;-17.82;57.22
59168;BME280;70412;55.048;73.268;2024-02-23T11:59:32;102425.91;;;-17.13;55.75
59168;BME280;70412;55.048;73.268;2024-02-23T12:02:35;102421.47;;;-16.72;54.86
59168;BME280;70412;55.048;73.268;2024-02-23T12:05:38;102387.38;;;-16.92;54.33
59168;BME280;70412;55.048;73.268;2024-02-23T12:08:40;102417.72;;;-16.89;54.13
59168;BME280;70412;55.048;73.268;2024-02-23T12:11:43;102415.06;;;-17.02;54.31
59168;BME280;70412;55.048;73.268;2024-02-23T12:14:47;102420.63;;;-17.50;54.43
59168;BME280;70412;55.048;73.268;2024-02-23T12:17:58;102426.41;;;-17.94;55.13
59168;BME280;70412;55.048;73.268;2024-02-23T12:21:07;102429.81;;;-18.46;56.20
59168;BME280;70412;55.048;73.268;2024-02-23T12:24:25;102426.34;;;-18.99;57.10
59168;BME280;70412;55.048;73.268;2024-02-23T12:27:29;102415.53;;;-19.49;57.91
59168;BME280;70412;55.048;73.268;2024-02-23T12:30:35;102422.69;;;-19.64;58.67
59168;BME280;70412;55.048;73.268;2024-02-23T12:33:39;102393.56;;;-20.02;59.17
59168;BME280;70412;55.048;73.268;2024-02-23T12:36:50;102436.13;;;-20.01;59.28
59168;BME280;70412;55.048;73.268;2024-02-23T12:39:52;102417.38;;;-20.35;59.61
59168;BME280;70412;55.048;73.268;2024-02-23T12:42:55;102435.19;;;-20.40;59.71
59168;BME280;70412;55.048;73.268;2024-02-23T12:45:57;102452.41;;;-20.43;60.38
59168;BME280;70412;55.048;73.268;2024-02-23T12:49:00;102453.69;;;-20.57;60.73
59168;BME280;70412;55.048;73.268;2024-02-23T12:52:03;102452.94;;;-20.75;61.18
59168;BME280;70412;55.048;73.268;2024-02-23T12:55:06;102445.72;;;-20.91;61.12
59168;BME280;70412;55.048;73.268;2024-02-23T12:58:08;102458.78;;;-20.93;61.23
59168;BME280;70412;55.048;73.268;2024-02-23T13:01:11;102462.47;;;-20.98;61.56
59168;BME280;70412;55.048;73.268;2024-02-23T13:04:15;102457.69;;;-21.05;61.85
59168;BME280;70412;55.048;73.268;2024-02-23T13:07:29;102468.28;;;-21.17;61.94
59168;BME280;70412;55.048;73.268;2024-02-23T13:10:32;102464.13;;;-21.35;62.48
59168;BME280;70412;55.048;73.268;2024-02-23T13:13:35;102453.34;;;-21.44;62.58
59168;BME280;70412;55.048;73.268;2024-02-23T13:16:38;102452.50;;;-21.53;62.67
59168;BME280;70412;55.048;73.268;2024-02-23T13:19:41;102467.50;;;-21.62;62.81
59168;BME280;70412;55.048;73.268;2024-02-23T13:22:43;102469.97;;;-21.71;63.03
59168;BME280;70412;55.048;73.268;2024-02-23T13:25:46;102476.91;;;-21.85;62.82
59168;BME280;70412;55.048;73.268;2024-02-23T13:28:48;102471.06;;;-21.94;63.42
59168;BME280;70412;55.048;73.268;2024-02-23T13:31:51;102458.63;;;-22.03;63.64
59168;BME280;70412;55.048;73.268;2024-02-23T13:35:11;102478.25;;;-22.06;63.83
59168;BME280;70412;55.048;73.268;2024-02-23T13:38:16;102475.63;;;-22.16;63.63
59168;BME280;70412;55.048;73.268;2024-02-23T13:41:18;102476.06;;;-22.20;64.08
59168;BME280;70412;55.048;73.268;2024-02-23T13:44:33;102475.03;;;-22.22;64.44
59168;BME280;70412;55.048;73.268;2024-02-23T13:47:36;102473.19;;;-22.25;64.78
59168;BME280;70412;55.048;73.268;2024-02-23T13:50:38;102461.47;;;-22.35;64.54
59168;BME280;70412;55.048;73.268;2024-02-23T13:53:41;102461.47;;;-22.43;64.56
59168;BME280;70412;55.048;73.268;2024-02-23T13:56:44;102465.59;;;-22.44;65.11
59168;BME280;70412;55.048;73.268;2024-02-23T13:59:46;102467.91;;;-22.45;64.90
59168;BME280;70412;55.048;73.268;2024-02-23T14:02:49;102469.25;;;-22.49;65.31
59168;BME280;70412;55.048;73.268;2024-02-23T14:05:52;102455.63;;;-22.61;65.42
59168;BME280;70412;55.048;73.268;2024-02-23T14:08:54;102425.34;;;-22.74;65.16
59168;BME280;70412;55.048;73.268;2024-02-23T14:11:57;102476.84;;;-22.47;65.34
59168;BME280;70412;55.048;73.268;2024-02-23T14:15:00;102460.44;;;-22.54;65.78
59168;BME280;70412;55.048;73.268;2024-02-23T14:18:03;102474.34;;;-22.56;65.58
59168;BME280;70412;55.048;73.268;2024-02-23T14:21:05;102475.81;;;-22.58;65.89
59168;BME280;70412;55.048;73.268;2024-02-23T14:24:08;102465.28;;;-22.64;65.58
59168;BME280;70412;55.048;73.268;2024-02-23T14:27:10;102456.81;;;-22.66;65.75
59168;BME280;70412;55.048;73.268;2024-02-23T14:30:13;102433.06;;;-22.88;65.99
59168;BME280;70412;55.048;73.268;2024-02-23T14:33:15;102476.97;;;-22.63;65.75
59168;BME280;70412;55.048;73.268;2024-02-23T14:36:18;102481.81;;;-22.56;65.55
59168;BME280;70412;55.048;73.268;2024-02-23T14:39:21;102492.34;;;-22.58;65.46
59168;BME280;70412;55.048;73.268;2024-02-23T14:42:23;102491.91;;;-22.63;65.63
59168;BME280;70412;55.048;73.268;2024-02-23T14:45:26;102464.34;;;-22.90;66.60
59168;BME280;70412;55.048;73.268;2024-02-23T14:48:30;102488.66;;;-22.79;66.33
59168;BME280;70412;55.048;73.268;2024-02-23T14:51:32;102485.72;;;-22.75;66.55
59168;BME280;70412;55.048;73.268;2024-02-23T14:54:37;102489.09;;;-22.75;66.51
59168;BME280;70412;55.048;73.268;2024-02-23T14:57:39;102490.13;;;-22.81;66.82
59168;BME280;70412;55.048;73.268;2024-02-23T15:00:42;102497.09;;;-22.95;66.58
59168;BME280;70412;55.048;73.268;2024-02-23T15:03:45;102484.94;;;-23.09;67.05
59168;BME280;70412;55.048;73.268;2024-02-23T15:06:49;102445.38;;;-23.40;67.15
59168;BME280;70412;55.048;73.268;2024-02-23T15:09:52;102446.41;;;-23.38;67.16
59168;BME280;70412;55.048;73.268;2024-02-23T15:13:08;102461.50;;;-23.28;66.77
59168;BME280;70412;55.048;73.268;2024-02-23T15:16:16;102476.56;;;-23.27;66.83
59168;BME280;70412;55.048;73.268;2024-02-23T15:19:22;102458.59;;;-23.66;66.78
59168;BME280;70412;55.048;73.268;2024-02-23T15:22:29;102484.00;;;-23.60;67.01
59168;BME280;70412;55.048;73.268;2024-02-23T15:25:34;102433.09;;;-23.89;67.01
59168;BME280;70412;55.048;73.268;2024-02-23T15:28:37;102471.00;;;-23.66;67.04
59168;BME280;70412;55.048;73.268;2024-02-23T15:31:39;102471.19;;;-23.56;67.54
59168;BME280;70412;55.048;73.268;2024-02-23T15:34:45;102474.28;;;-23.49;67.33
59168;BME280;70412;55.048;73.268;2024-02-23T15:37:48;102467.53;;;-23.50;67.21
59168;BME280;70412;55.048;73.268;2024-02-23T15:40:53;102470.03;;;-23.50;67.12